Time;durP1;ratioP1;P1;durP2;ratioP2;P2;SDS_P1;SDS_P2;PMS_P1;PMS_P2;Temp;Humidity;BMP_temperature;BMP_pressure;BME280_temperature;BME280_humidity;BME280_pressure;Samples;Min_cycle;Max_cycle;Signal;HPM_P1;HPM_P2
2021/03/16 05:52:07;;;;;;;0.00;0.00;;;;;;;;;;5073859;22;850126;-68
2021/03/16 05:54:55;;;;;;;0.00;0.00;;;;;;;;;;5052390;28;20043;-67
2021/03/16 05:57:40;;;;;;;0.05;0.00;;;;;;;;;;5051028;28;20130;-67
2021/03/16 06:00:25;;;;;;;0.00;0.00;;;;;;;;;;5066147;28;20044;-67
2021/03/16 06:03:09;;;;;;;0.00;0.00;;;;;;;;;;5065157;28;20040;-64
2021/03/16 06:05:54;;;;;;;0.00;0.00;;;;;;;;;;5068023;28;20531;-66
2021/03/16 06:08:39;;;;;;;0.00;0.00;;;;;;;;;;5068428;28;20450;-70
2021/03/16 06:11:25;;;;;;;0.03;0.03;;;;;;;;;;5064746;28;20124;-69
2021/03/16 06:14:09;;;;;;;0.00;0.00;;;;;;;;;;5064502;28;20048;-67
2021/03/16 06:16:54;;;;;;;0.00;0.00;;;;;;;;;;5071947;28;20605;-68
2021/03/16 06:19:40;;;;;;;0.13;0.10;;;;;;;;;;5069732;28;20036;-69
2021/03/16 06:22:25;;;;;;;0.00;0.00;;;;;;;;;;5064380;28;20380;-69
2021/03/16 06:25:09;;;;;;;0.00;0.00;;;;;;;;;;5064479;28;20043;-68
2021/03/16 06:28:04;;;;;;;0.00;0.00;;;;;;;;;;5050571;28;20117;-69
2021/03/16 06:30:49;;;;;;;0.30;0.20;;;;;;;;;;5049648;28;20048;-69
2021/03/16 06:33:34;;;;;;;0.00;0.00;;;;;;;;;;5067494;28;20044;-70
2021/03/16 06:36:23;;;;;;;0.00;0.00;;;;;;;;;;5071370;28;20127;-69
2021/03/16 06:39:16;;;;;;;0.00;0.00;;;;;;;;;;5068266;28;20039;-69
2021/03/16 06:42:01;;;;;;;0.00;0.00;;;;;;;;;;5067083;28;20048;-69
2021/03/16 06:44:46;;;;;;;0.00;0.00;;;;;;;;;;5067075;28;20039;-68
2021/03/16 06:47:30;;;;;;;0.00;0.00;;;;;;;;;;5063924;28;20048;-68
2021/03/16 06:50:15;;;;;;;0.00;0.00;;;;;;;;;;5063654;28;20090;-69
2021/03/16 06:53:00;;;;;;;0.00;0.00;;;;;;;;;;5063978;28;20432;-67
2021/03/16 06:55:57;;;;;;;0.00;0.00;;;;;;;;;;5063909;28;20035;-70
2021/03/16 06:58:42;;;;;;;0.00;0.00;;;;;;;;;;5063240;28;20400;-71
2021/03/16 07:01:30;;;;;;;0.00;0.00;;;;;;;;;;5062791;28;20087;-68
2021/03/16 07:04:16;;;;;;;0.05;0.00;;;;;;;;;;5052927;28;20500;-71
2021/03/16 07:07:01;;;;;;;0.00;0.00;;;;;;;;;;5038199;28;20043;-71
2021/03/16 07:09:47;;;;;;;0.08;0.00;;;;;;;;;;5045059;28;20585;-70
2021/03/16 07:12:34;;;;;;;0.10;0.10;;;;;;;;;;5058521;28;20079;-70
2021/03/16 07:15:19;;;;;;;0.00;0.00;;;;;;;;;;5068673;28;20170;-70
2021/03/16 07:18:04;;;;;;;0.00;0.00;;;;;;;;;;5051227;28;20032;-71
2021/03/16 07:20:49;;;;;;;0.00;0.00;;;;;;;;;;5026198;28;20103;-69
2021/03/16 07:23:45;;;;;;;0.00;0.00;;;;;;;;;;5049283;28;20036;-70
2021/03/16 07:26:30;;;;;;;0.00;0.00;;;;;;;;;;5053693;28;20094;-71
2021/03/16 07:29:15;;;;;;;0.00;0.00;;;;;;;;;;5049482;28;20106;-70
2021/03/16 07:32:02;;;;;;;0.00;0.00;;;;;;;;;;5048821;28;20639;-68
2021/03/16 07:34:46;;;;;;;0.08;0.00;;;;;;;;;;5057358;28;20036;-71
2021/03/16 07:37:31;;;;;;;0.00;0.00;;;;;;;;;;5057559;28;20039;-71
2021/03/16 07:40:17;;;;;;;0.00;0.00;;;;;;;;;;5056970;28;20067;-71
2021/03/16 07:43:01;;;;;;;0.25;0.08;;;;;;;;;;5041587;28;20391;-71
2021/03/16 07:45:46;;;;;;;0.00;0.00;;;;;;;;;;5058224;28;20048;-71
2021/03/16 07:48:31;;;;;;;0.00;0.00;;;;;;;;;;5054169;28;26495;-70
2021/03/16 07:51:17;;;;;;;0.10;0.05;;;;;;;;;;5060964;28;20055;-70
2021/03/16 07:54:03;;;;;;;0.60;0.47;;;;;;;;;;5061947;28;20044;-70
2021/03/16 07:56:57;;;;;;;0.50;0.30;;;;;;;;;;5061576;28;20035;-70
2021/03/16 07:59:41;;;;;;;0.00;0.00;;;;;;;;;;5058787;28;20128;-71
2021/03/16 08:02:26;;;;;;;0.00;0.00;;;;;;;;;;5050255;28;20122;-68
2021/03/16 08:05:17;;;;;;;0.00;0.00;;;;;;;;;;5048291;28;20466;-70
2021/03/16 08:08:12;;;;;;;0.00;0.00;;;;;;;;;;5048982;28;20044;-70
2021/03/16 08:11:05;;;;;;;0.00;0.00;;;;;;;;;;5049101;28;20523;-71
2021/03/16 08:13:55;;;;;;;0.00;0.00;;;;;;;;;;5047445;28;20035;-68
2021/03/16 08:16:42;;;;;;;0.00;0.00;;;;;;;;;;5048538;28;20126;-69
2021/03/16 08:19:37;;;;;;;0.00;0.00;;;;;;;;;;5048363;28;20450;-68
2021/03/16 08:22:23;;;;;;;0.00;0.00;;;;;;;;;;5046890;28;20048;-68
2021/03/16 08:25:07;;;;;;;0.00;0.00;;;;;;;;;;5048641;28;20099;-69
2021/03/16 08:27:53;;;;;;;0.00;0.00;;;;;;;;;;5051339;28;20098;-69
2021/03/16 08:30:39;;;;;;;0.52;0.52;;;;;;;;;;5048938;28;20282;-68
2021/03/16 08:33:23;;;;;;;0.10;0.10;;;;;;;;;;5048736;28;20578;-68
2021/03/16 08:36:10;;;;;;;0.00;0.00;;;;;;;;;;5051755;28;20528;-68
2021/03/16 08:38:55;;;;;;;0.00;0.00;;;;;;;;;;5050204;28;20061;-68
2021/03/16 08:41:40;;;;;;;0.15;0.00;;;;;;;;;;5047915;28;20106;-71
2021/03/16 08:44:25;;;;;;;0.75;0.65;;;;;;;;;;5048177;28;20158;-71
2021/03/16 08:47:11;;;;;;;0.00;0.00;;;;;;;;;;5056366;28;20043;-71
2021/03/16 08:49:56;;;;;;;0.10;0.10;;;;;;;;;;5056252;28;20576;-70
2021/03/16 08:52:42;;;;;;;0.00;0.00;;;;;;;;;;5054975;28;20133;-70
2021/03/16 08:55:27;;;;;;;4.05;0.47;;;;;;;;;;5054598;28;20503;-71
2021/03/16 08:58:12;;;;;;;5.80;0.75;;;;;;;;;;5057590;28;20039;-71
2021/03/16 09:00:56;;;;;;;0.00;0.00;;;;;;;;;;5054948;28;20072;-71
2021/03/16 09:03:41;;;;;;;0.00;0.00;;;;;;;;;;5056316;28;20039;-70
2021/03/16 09:06:25;;;;;;;0.00;0.00;;;;;;;;;;5055772;28;20052;-71
2021/03/16 09:09:11;;;;;;;21.35;2.17;;;;;;;;;;5059556;28;20213;-71
2021/03/16 09:11:56;;;;;;;0.00;0.00;;;;;;;;;;5061240;28;20532;-70
2021/03/16 09:14:41;;;;;;;0.00;0.00;;;;;;;;;;5057513;28;20040;-68
2021/03/16 09:17:26;;;;;;;0.30;0.10;;;;;;;;;;5052308;28;20051;-68
2021/03/16 09:20:15;;;;;;;0.00;0.00;;;;;;;;;;5053596;28;20055;-69
2021/03/16 09:23:01;;;;;;;0.00;0.00;;;;;;;;;;5049263;28;20102;-69
2021/03/16 09:25:46;;;;;;;2.00;0.43;;;;;;;;;;5047572;28;20574;-68
2021/03/16 09:28:32;;;;;;;0.00;0.00;;;;;;;;;;5047008;28;20632;-67
2021/03/16 09:31:19;;;;;;;0.10;0.00;;;;;;;;;;5041548;28;20078;-68
2021/03/16 09:34:03;;;;;;;0.00;0.00;;;;;;;;;;5058900;28;20047;-68
2021/03/16 09:37:18;;;;;;;9.32;1.65;;;;;;;;;;5057374;28;20035;-68
2021/03/16 09:39:44;;;;;;;;;;;;;;;;;;5043525;28;20111;-68
2021/03/16 09:42:18;;;;;;;2.55;0.30;;;;;;;;;;5056020;28;19958;-71
2021/03/16 09:44:45;;;;;;;0.63;0.38;;;;;;;;;;5059017;28;20035;-70
2021/03/16 09:47:11;;;;;;;0.00;0.00;;;;;;;;;;5058142;28;20053;-71
2021/03/16 09:49:39;;;;;;;0.00;0.00;;;;;;;;;;5058219;28;20044;-71
2021/03/16 09:52:06;;;;;;;0.65;0.43;;;;;;;;;;5057453;28;20478;-70
2021/03/16 09:54:43;;;;;;;0.65;0.52;;;;;;;;;;5057401;28;20047;-71
2021/03/16 09:57:10;;;;;;;0.73;0.57;;;;;;;;;;5059762;28;20017;-71
2021/03/16 09:59:40;;;;;;;0.00;0.00;;;;;;;;;;5057747;28;20473;-71
2021/03/16 10:02:07;;;;;;;0.03;0.00;;;;;;;;;;5052724;28;20794;-70
2021/03/16 10:04:47;;;;;;;0.63;0.45;;;;;;;;;;5036031;28;20086;-71
2021/03/16 10:07:23;;;;;;;1.10;0.47;;;;;;;;;;5057710;28;20036;-68
2021/03/16 10:09:49;;;;;;;5.47;1.38;;;;;;;;;;5057136;28;20021;-68
2021/03/16 10:12:17;;;;;;;0.20;0.20;;;;;;;;;;5060432;28;20028;-69
2021/03/16 10:14:43;;;;;;;7.43;1.77;;;;;;;;;;5058739;28;20025;-68
2021/03/16 10:17:10;;;;;;;0.47;0.47;;;;;;;;;;5058012;28;20064;-69
2021/03/16 10:19:39;;;;;;;3.40;1.33;;;;;;;;;;5058467;28;20025;-68
2021/03/16 10:22:11;;;;;;;0.22;0.22;;;;;;;;;;5058396;28;20029;-68
2021/03/16 10:24:37;;;;;;;0.43;0.32;;;;;;;;;;5056955;28;20021;-68
2021/03/16 10:27:04;;;;;;;14.45;1.38;;;;;;;;;;5057710;28;20099;-69
2021/03/16 10:29:30;;;;;;;0.43;0.43;;;;;;;;;;5055704;28;20029;-68
2021/03/16 10:31:58;;;;;;;0.45;0.43;;;;;;;;;;5057985;28;20122;-68
2021/03/16 10:34:24;;;;;;;1.10;0.82;;;;;;;;;;5056829;28;20494;-68
2021/03/16 10:36:50;;;;;;;22.23;2.00;;;;;;;;;;5057220;28;20022;-68
2021/03/16 10:39:16;;;;;;;0.55;0.22;;;;;;;;;;5064012;28;20451;-69
2021/03/16 10:41:43;;;;;;;3.03;0.50;;;;;;;;;;5061423;28;20033;-68
2021/03/16 10:44:09;;;;;;;1.48;0.68;;;;;;;;;;5060931;28;20040;-68
2021/03/16 10:46:35;;;;;;;0.00;0.00;;;;;;;;;;5062139;28;20524;-68
2021/03/16 10:49:01;;;;;;;0.00;0.00;;;;;;;;;;5059288;28;20013;-68
2021/03/16 10:51:27;;;;;;;0.00;0.00;;;;;;;;;;5062106;28;20045;-68
2021/03/16 10:53:54;;;;;;;19.92;2.33;;;;;;;;;;5063061;28;20492;-71
2021/03/16 10:56:20;;;;;;;0.38;0.10;;;;;;;;;;5061515;28;20040;-71
2021/03/16 10:58:46;;;;;;;10.95;1.33;;;;;;;;;;5060245;28;20040;-70
2021/03/16 11:01:13;;;;;;;0.77;0.28;;;;;;;;;;5059878;28;20505;-70
2021/03/16 11:03:39;;;;;;;0.10;0.10;;;;;;;;;;5056780;28;20055;-69
2021/03/16 11:06:05;;;;;;;0.00;0.00;;;;;;;;;;5058691;28;20382;-70
2021/03/16 11:08:31;;;;;;;0.38;0.10;;;;;;;;;;5059586;28;20082;-69
2021/03/16 11:10:57;;;;;;;0.77;0.55;;;;;;;;;;5058247;28;20061;-70
2021/03/16 11:13:23;;;;;;;0.30;0.20;;;;;;;;;;5059434;28;20036;-70
2021/03/16 11:15:50;;;;;;;4.10;0.75;;;;;;;;;;5043016;28;20104;-70
2021/03/16 11:18:17;;;;;;;0.00;0.00;;;;;;;;;;5062504;28;20037;-70
2021/03/16 11:20:43;;;;;;;0.05;0.00;;;;;;;;;;5060175;28;20477;-70
2021/03/16 11:23:09;;;;;;;0.08;0.08;;;;;;;;;;5061383;28;20029;-70
2021/03/16 11:25:35;;;;;;;0.00;0.00;;;;;;;;;;5060890;28;20025;-70
2021/03/16 11:28:02;;;;;;;1.85;0.45;;;;;;;;;;5060813;28;20033;-70
2021/03/16 11:30:31;;;;;;;0.13;0.13;;;;;;;;;;5057925;28;20021;-70
2021/03/16 11:32:57;;;;;;;0.30;0.13;;;;;;;;;;5062922;28;20029;-70
2021/03/16 11:35:42;;;;;;;0.00;0.00;;;;;;;;;;5061127;28;20146;-70
2021/03/16 11:38:27;;;;;;;1.80;0.60;;;;;;;;;;5060763;28;20171;-70
2021/03/16 11:41:11;;;;;;;0.38;0.13;;;;;;;;;;5057069;28;20120;-69
2021/03/16 11:43:56;;;;;;;0.00;0.00;;;;;;;;;;5059001;28;20120;-70
2021/03/16 11:46:40;;;;;;;0.00;0.00;;;;;;;;;;5059025;28;20075;-70
2021/03/16 11:49:25;;;;;;;0.00;0.00;;;;;;;;;;5059470;28;20039;-70
2021/03/16 11:52:10;;;;;;;0.00;0.00;;;;;;;;;;5058272;28;20492;-71
2021/03/16 11:54:54;;;;;;;0.30;0.10;;;;;;;;;;5061153;28;20032;-71
2021/03/16 11:57:39;;;;;;;0.10;0.10;;;;;;;;;;5061452;28;20098;-70
2021/03/16 12:00:23;;;;;;;7.10;0.30;;;;;;;;;;5061633;28;20510;-70
2021/03/16 12:03:08;;;;;;;0.00;0.00;;;;;;;;;;5063330;28;20094;-71
2021/03/16 12:05:53;;;;;;;0.32;0.30;;;;;;;;;;5063177;28;20036;-70
2021/03/16 12:08:38;;;;;;;1.90;0.55;;;;;;;;;;5061211;28;20086;-71
2021/03/16 12:11:23;;;;;;;0.40;0.40;;;;;;;;;;5057124;28;20530;-69
2021/03/16 12:14:07;;;;;;;0.70;0.47;;;;;;;;;;5059827;28;20282;-69
2021/03/16 12:16:52;;;;;;;1.05;0.98;;;;;;;;;;5061088;28;20062;-70
2021/03/16 12:19:37;;;;;;;0.00;0.00;;;;;;;;;;5057150;28;20036;-70
2021/03/16 12:22:21;;;;;;;1.13;0.35;;;;;;;;;;5059012;28;20102;-70
2021/03/16 12:25:06;;;;;;;0.00;0.00;;;;;;;;;;5058807;28;20039;-70
2021/03/16 12:27:51;;;;;;;1.52;0.68;;;;;;;;;;5060482;28;20093;-67
2021/03/16 12:30:36;;;;;;;1.95;0.43;;;;;;;;;;5060126;28;20039;-69
2021/03/16 12:33:21;;;;;;;1.17;0.20;;;;;;;;;;5059456;28;20036;-69
2021/03/16 12:36:06;;;;;;;0.75;0.35;;;;;;;;;;5061561;28;20469;-70
2021/03/16 12:38:51;;;;;;;0.00;0.00;;;;;;;;;;5059167;28;20115;-68
2021/03/16 12:41:35;;;;;;;0.75;0.60;;;;;;;;;;5042767;28;20083;-69
2021/03/16 12:44:20;;;;;;;0.00;0.00;;;;;;;;;;5054604;28;20032;-69
2021/03/16 12:47:05;;;;;;;0.03;0.03;;;;;;;;;;5058422;28;20044;-70
2021/03/16 12:49:50;;;;;;;4.35;2.10;;;;;;;;;;5051672;28;20067;-66
2021/03/16 12:52:35;;;;;;;0.00;0.00;;;;;;;;;;5058375;28;20056;-69
2021/03/16 12:55:20;;;;;;;0.00;0.00;;;;;;;;;;5058022;28;20067;-68
2021/03/16 12:58:04;;;;;;;6.20;2.30;;;;;;;;;;5049506;28;20027;-65
2021/03/16 13:00:50;;;;;;;3.60;0.43;;;;;;;;;;5051878;28;20064;-61
2021/03/16 13:03:35;;;;;;;0.15;0.15;;;;;;;;;;5056602;28;20048;-62
2021/03/16 13:06:19;;;;;;;0.38;0.28;;;;;;;;;;5060208;28;20036;-65
2021/03/16 13:09:04;;;;;;;0.43;0.30;;;;;;;;;;5058445;28;20050;-65
2021/03/16 13:11:49;;;;;;;5.80;1.77;;;;;;;;;;5060292;28;20039;-60
2021/03/16 13:14:34;;;;;;;11.10;1.38;;;;;;;;;;5054546;28;20506;-66
2021/03/16 13:17:19;;;;;;;0.73;0.73;;;;;;;;;;5057360;28;20103;-63
2021/03/16 13:20:05;;;;;;;3.53;0.30;;;;;;;;;;5057071;28;20075;-65
2021/03/16 13:22:50;;;;;;;4.47;1.88;;;;;;;;;;5054551;28;20044;-60
2021/03/16 13:25:34;;;;;;;0.73;0.57;;;;;;;;;;5055241;28;20400;-58
2021/03/16 13:28:19;;;;;;;2.85;0.80;;;;;;;;;;5039827;28;20468;-52
2021/03/16 13:31:03;;;;;;;11.73;0.90;;;;;;;;;;5051285;28;20475;-62
2021/03/16 13:33:48;;;;;;;0.68;0.40;;;;;;;;;;5059667;28;20090;-59
2021/03/16 13:36:33;;;;;;;0.65;0.13;;;;;;;;;;5059447;28;20036;-61
2021/03/16 13:39:18;;;;;;;0.30;0.30;;;;;;;;;;5057288;28;20450;-62
2021/03/16 13:42:02;;;;;;;2.45;0.45;;;;;;;;;;5058235;28;20413;-61
2021/03/16 13:44:47;;;;;;;9.13;2.42;;;;;;;;;;5057765;28;20055;-61
2021/03/16 13:47:31;;;;;;;18.23;2.28;;;;;;;;;;5055770;28;20524;-64
2021/03/16 13:50:16;;;;;;;1.02;0.82;;;;;;;;;;5056875;28;20512;-61
2021/03/16 13:53:01;;;;;;;0.20;0.20;;;;;;;;;;5056633;28;20048;-61
2021/03/16 13:55:46;;;;;;;0.77;0.43;;;;;;;;;;5050901;28;20329;-66
2021/03/16 13:58:30;;;;;;;0.00;0.00;;;;;;;;;;5044219;28;20036;-67
2021/03/16 14:01:15;;;;;;;1.35;0.73;;;;;;;;;;5053127;28;20334;-67
2021/03/16 14:04:00;;;;;;;0.20;0.20;;;;;;;;;;5050981;28;20035;-70
2021/03/16 14:06:44;;;;;;;2.17;0.57;;;;;;;;;;5050583;28;20048;-69
2021/03/16 14:09:29;;;;;;;3.17;0.65;;;;;;;;;;5055938;28;20576;-69
2021/03/16 14:12:14;;;;;;;0.20;0.20;;;;;;;;;;5057422;28;20401;-68
2021/03/16 14:14:58;;;;;;;0.30;0.30;;;;;;;;;;5061290;28;20039;-69
2021/03/16 14:17:43;;;;;;;7.88;1.50;;;;;;;;;;5065550;28;20412;-69
2021/03/16 14:20:28;;;;;;;0.30;0.30;;;;;;;;;;5059526;28;20102;-69
2021/03/16 14:23:13;;;;;;;2.40;2.13;;;;;;;;;;5057346;28;20157;-69
2021/03/16 14:25:58;;;;;;;0.82;0.82;;;;;;;;;;5053582;28;20051;-67
2021/03/16 14:28:42;;;;;;;0.32;0.32;;;;;;;;;;5054292;28;20522;-69
2021/03/16 14:31:27;;;;;;;3.30;0.30;;;;;;;;;;5056147;28;20052;-68
2021/03/16 14:34:11;;;;;;;0.10;0.10;;;;;;;;;;5061775;28;20035;-69
2021/03/16 14:36:56;;;;;;;0.52;0.52;;;;;;;;;;5059200;28;20423;-69
2021/03/16 14:39:41;;;;;;;11.00;0.35;;;;;;;;;;5058923;28;20043;-70
2021/03/16 14:42:26;;;;;;;2.90;1.20;;;;;;;;;;5064979;28;20101;-69
2021/03/16 14:45:11;;;;;;;0.15;0.15;;;;;;;;;;5057323;28;20285;-68
2021/03/16 14:47:56;;;;;;;0.60;0.30;;;;;;;;;;5062737;28;20048;-69
2021/03/16 14:50:40;;;;;;;1.30;1.20;;;;;;;;;;5060243;28;20102;-69
2021/03/16 14:53:25;;;;;;;1.10;0.28;;;;;;;;;;5058427;28;20052;-69
2021/03/16 14:56:09;;;;;;;1.75;0.85;;;;;;;;;;5060289;28;20075;-69
2021/03/16 14:58:54;;;;;;;0.90;0.90;;;;;;;;;;5060717;28;20074;-69
2021/03/16 15:01:38;;;;;;;0.80;0.28;;;;;;;;;;5059173;28;20044;-69
2021/03/16 15:04:23;;;;;;;9.85;0.50;;;;;;;;;;5053854;28;20067;-69
2021/03/16 15:07:08;;;;;;;0.10;0.10;;;;;;;;;;5057923;28;20067;-69
2021/03/16 15:09:52;;;;;;;0.68;0.43;;;;;;;;;;5057875;28;20068;-66
2021/03/16 15:12:37;;;;;;;0.82;0.17;;;;;;;;;;5057810;28;20043;-69
2021/03/16 15:15:22;;;;;;;0.30;0.30;;;;;;;;;;5061164;28;20040;-69
2021/03/16 15:18:06;;;;;;;0.00;0.00;;;;;;;;;;5062291;28;20571;-68
2021/03/16 15:20:51;;;;;;;0.65;0.65;;;;;;;;;;5061098;28;20374;-67
2021/03/16 15:23:36;;;;;;;4.15;0.75;;;;;;;;;;5057066;28;20453;-69
2021/03/16 15:26:20;;;;;;;3.70;0.65;;;;;;;;;;5058995;28;20036;-68
2021/03/16 15:29:05;;;;;;;0.10;0.10;;;;;;;;;;5056496;28;20040;-69
2021/03/16 15:31:50;;;;;;;0.30;0.30;;;;;;;;;;5056570;28;20111;-68
2021/03/16 15:34:34;;;;;;;0.20;0.20;;;;;;;;;;5058314;28;20461;-69
2021/03/16 15:37:20;;;;;;;1.17;0.43;;;;;;;;;;5060238;28;20052;-68
2021/03/16 15:40:06;;;;;;;0.03;0.03;;;;;;;;;;5056236;28;20105;-69
2021/03/16 15:42:50;;;;;;;0.25;0.25;;;;;;;;;;5057786;28;20183;-69
2021/03/16 15:45:36;;;;;;;1.30;0.63;;;;;;;;;;5058550;28;20037;-69
2021/03/16 15:48:21;;;;;;;0.40;0.40;;;;;;;;;;5061267;28;20078;-69
2021/03/16 15:51:05;;;;;;;2.00;0.50;;;;;;;;;;5064076;28;20432;-68
2021/03/16 15:53:50;;;;;;;4.97;0.90;;;;;;;;;;5057337;28;20039;-68
2021/03/16 15:56:35;;;;;;;3.80;1.17;;;;;;;;;;5055051;28;20558;-69
2021/03/16 15:59:19;;;;;;;1.88;0.25;;;;;;;;;;5030039;28;20126;-69
2021/03/16 16:02:04;;;;;;;3.53;0.30;;;;;;;;;;5042770;28;20163;-67
2021/03/16 16:04:49;;;;;;;0.00;0.00;;;;;;;;;;5033801;28;20272;-69
2021/03/16 16:07:34;;;;;;;0.10;0.10;;;;;;;;;;5041258;28;20527;-69
2021/03/16 16:10:18;;;;;;;0.25;0.17;;;;;;;;;;5054757;28;20083;-69
2021/03/16 16:13:03;;;;;;;0.32;0.32;;;;;;;;;;5058733;28;20051;-69
2021/03/16 16:15:48;;;;;;;0.32;0.20;;;;;;;;;;5059645;28;20677;-69
2021/03/16 16:18:33;;;;;;;1.15;0.25;;;;;;;;;;5059695;28;20163;-69
2021/03/16 16:21:17;;;;;;;5.30;1.80;;;;;;;;;;5060693;28;20039;-69
2021/03/16 16:24:03;;;;;;;0.60;0.50;;;;;;;;;;5056710;28;20124;-69
2021/03/16 16:26:48;;;;;;;3.73;1.07;;;;;;;;;;5062138;28;20040;-69
2021/03/16 16:29:33;;;;;;;0.45;0.43;;;;;;;;;;5058507;28;20086;-69
2021/03/16 16:32:17;;;;;;;2.55;1.15;;;;;;;;;;5056351;28;20047;-69
2021/03/16 16:35:03;;;;;;;4.68;0.30;;;;;;;;;;5052172;28;20833;-70
2021/03/16 16:37:48;;;;;;;3.53;0.35;;;;;;;;;;5048084;28;20036;-70
2021/03/16 16:40:33;;;;;;;0.73;0.55;;;;;;;;;;5051543;28;20102;-70
2021/03/16 16:43:18;;;;;;;5.18;1.25;;;;;;;;;;5063482;28;20090;-69
2021/03/16 16:46:03;;;;;;;0.20;0.20;;;;;;;;;;5053621;28;20051;-69
2021/03/16 16:48:48;;;;;;;1.25;0.60;;;;;;;;;;5059412;28;20043;-67
2021/03/16 16:51:32;;;;;;;1.55;0.63;;;;;;;;;;5057639;28;20056;-67
2021/03/16 16:54:17;;;;;;;4.97;1.60;;;;;;;;;;5050144;28;20094;-68
2021/03/16 16:57:01;;;;;;;0.00;0.00;;;;;;;;;;5041993;28;20052;-66
2021/03/16 16:59:46;;;;;;;16.92;1.77;;;;;;;;;;5050646;28;20527;-69
2021/03/16 17:02:31;;;;;;;1.45;0.30;;;;;;;;;;5046564;28;20047;-69
2021/03/16 17:05:16;;;;;;;2.35;0.75;;;;;;;;;;5047477;28;20120;-68
2021/03/16 17:08:02;;;;;;;10.05;1.30;;;;;;;;;;5046671;28;20056;-69
2021/03/16 17:10:46;;;;;;;0.15;0.15;;;;;;;;;;5047429;28;20393;-68
2021/03/16 17:13:31;;;;;;;1.30;1.20;;;;;;;;;;5047634;28;20056;-68
2021/03/16 17:16:15;;;;;;;1.45;0.52;;;;;;;;;;5047471;28;20036;-65
2021/03/16 17:19:00;;;;;;;0.77;0.45;;;;;;;;;;5047211;28;20098;-69
2021/03/16 17:21:45;;;;;;;0.32;0.20;;;;;;;;;;5044203;28;20095;-69
2021/03/16 17:24:29;;;;;;;0.00;0.00;;;;;;;;;;5042834;28;20044;-69
2021/03/16 17:27:14;;;;;;;0.10;0.10;;;;;;;;;;5046066;28;20032;-69
2021/03/16 17:29:58;;;;;;;2.28;0.30;;;;;;;;;;5040345;28;20563;-69
2021/03/16 17:32:44;;;;;;;0.32;0.20;;;;;;;;;;5040135;28;20059;-69
2021/03/16 17:35:29;;;;;;;0.00;0.00;;;;;;;;;;5045969;28;20543;-69
2021/03/16 17:38:14;;;;;;;2.25;0.43;;;;;;;;;;5047069;28;20035;-69
2021/03/16 17:40:59;;;;;;;0.00;0.00;;;;;;;;;;5046939;28;20134;-68
2021/03/16 17:43:43;;;;;;;0.45;0.45;;;;;;;;;;5041907;28;20417;-68
2021/03/16 17:46:28;;;;;;;2.38;1.00;;;;;;;;;;5045985;28;20446;-69
2021/03/16 17:49:12;;;;;;;2.88;0.70;;;;;;;;;;5044893;28;20103;-68
2021/03/16 17:51:57;;;;;;;2.08;0.55;;;;;;;;;;5045223;28;20102;-69
2021/03/16 17:54:42;;;;;;;2.55;0.77;;;;;;;;;;5042042;28;20094;-69
2021/03/16 17:57:26;;;;;;;0.65;0.13;;;;;;;;;;5043763;28;20044;-71
2021/03/16 18:00:11;;;;;;;0.85;0.40;;;;;;;;;;5045569;28;20051;-70
2021/03/16 18:02:56;;;;;;;0.00;0.00;;;;;;;;;;5043041;28;20076;-68
2021/03/16 18:05:41;;;;;;;1.05;0.32;;;;;;;;;;5042052;28;20120;-71
2021/03/16 18:08:26;;;;;;;2.30;0.88;;;;;;;;;;5038284;28;20455;-71
2021/03/16 18:11:10;;;;;;;1.13;0.47;;;;;;;;;;5040753;28;20059;-71
2021/03/16 18:13:55;;;;;;;0.80;0.35;;;;;;;;;;5042226;28;20052;-72
2021/03/16 18:16:40;;;;;;;1.20;0.68;;;;;;;;;;5042483;28;20036;-70
2021/03/16 18:19:25;;;;;;;0.60;0.60;;;;;;;;;;5032928;28;20090;-68
2021/03/16 18:22:10;;;;;;;1.38;1.10;;;;;;;;;;5040563;28;20126;-70
2021/03/16 18:24:54;;;;;;;1.15;0.60;;;;;;;;;;5045025;28;20454;-69
2021/03/16 18:27:39;;;;;;;1.80;0.47;;;;;;;;;;5043783;28;20120;-67
2021/03/16 18:30:24;;;;;;;1.58;1.27;;;;;;;;;;5038779;28;20068;-68
2021/03/16 18:33:09;;;;;;;0.08;0.03;;;;;;;;;;5040306;28;20044;-71
2021/03/16 18:35:53;;;;;;;12.48;1.17;;;;;;;;;;5035517;28;20792;-69
2021/03/16 18:38:39;;;;;;;5.93;1.33;;;;;;;;;;5038456;28;20471;-72
2021/03/16 18:41:23;;;;;;;0.40;0.40;;;;;;;;;;5049062;28;20059;-71
2021/03/16 18:44:08;;;;;;;0.00;0.00;;;;;;;;;;5050073;28;20155;-71
2021/03/16 18:46:53;;;;;;;1.85;0.52;;;;;;;;;;5049939;28;20040;-71
2021/03/16 18:49:37;;;;;;;0.47;0.38;;;;;;;;;;5049774;28;20515;-72
2021/03/16 18:52:22;;;;;;;0.00;0.00;;;;;;;;;;5049884;28;20060;-71
2021/03/16 18:55:07;;;;;;;5.68;0.98;;;;;;;;;;5052709;28;20036;-72
2021/03/16 18:57:52;;;;;;;1.65;1.10;;;;;;;;;;5056940;28;20036;-71
2021/03/16 19:00:36;;;;;;;5.47;1.15;;;;;;;;;;5053612;28;20051;-72
2021/03/16 19:03:21;;;;;;;2.35;0.93;;;;;;;;;;5051174;28;20060;-70
2021/03/16 19:06:06;;;;;;;6.32;0.77;;;;;;;;;;5053465;28;20040;-71
2021/03/16 19:08:50;;;;;;;0.55;0.45;;;;;;;;;;5053289;28;20047;-71
2021/03/16 19:11:35;;;;;;;0.00;0.00;;;;;;;;;;5052537;28;20040;-71
2021/03/16 19:14:19;;;;;;;0.20;0.20;;;;;;;;;;5052227;28;20032;-69
2021/03/16 19:17:04;;;;;;;3.88;1.30;;;;;;;;;;5045349;28;20472;-72
2021/03/16 19:19:49;;;;;;;3.50;0.75;;;;;;;;;;5041479;28;20044;-71
2021/03/16 19:22:33;;;;;;;3.83;0.90;;;;;;;;;;5044025;28;20144;-72
2021/03/16 19:25:18;;;;;;;1.20;0.97;;;;;;;;;;5052498;28;20091;-71
2021/03/16 19:28:03;;;;;;;0.10;0.00;;;;;;;;;;5045986;28;20290;-71
2021/03/16 19:30:48;;;;;;;0.52;0.35;;;;;;;;;;5050859;28;20076;-72
2021/03/16 19:33:34;;;;;;;0.17;0.00;;;;;;;;;;5044744;28;20464;-71
2021/03/16 19:36:18;;;;;;;0.47;0.47;;;;;;;;;;5033339;28;20036;-71
2021/03/16 19:39:04;;;;;;;0.10;0.10;;;;;;;;;;5048125;28;20500;-72
2021/03/16 19:41:49;;;;;;;5.28;1.63;;;;;;;;;;5047950;28;20047;-71
2021/03/16 19:44:34;;;;;;;3.05;1.77;;;;;;;;;;5047259;28;20044;-70
2021/03/16 19:47:18;;;;;;;0.20;0.13;;;;;;;;;;5055289;28;20047;-71
2021/03/16 19:50:07;;;;;;;1.35;0.30;;;;;;;;;;5057377;28;20408;-70
2021/03/16 19:52:52;;;;;;;0.35;0.35;;;;;;;;;;5053814;28;20052;-71
2021/03/16 19:55:37;;;;;;;0.03;0.03;;;;;;;;;;5045111;28;20095;-70
2021/03/16 19:58:21;;;;;;;9.90;3.45;;;;;;;;;;5047842;28;20087;-70
2021/03/16 20:01:06;;;;;;;0.32;0.10;;;;;;;;;;5046394;28;20051;-71
2021/03/16 20:03:50;;;;;;;5.63;0.82;;;;;;;;;;5045399;28;20079;-69
2021/03/16 20:06:35;;;;;;;0.38;0.38;;;;;;;;;;5053732;28;20797;-71
2021/03/16 20:09:21;;;;;;;0.00;0.00;;;;;;;;;;5047685;28;20059;-70
2021/03/16 20:12:06;;;;;;;2.40;0.80;;;;;;;;;;5062209;28;20086;-70
2021/03/16 20:14:50;;;;;;;3.90;0.80;;;;;;;;;;5048027;28;20507;-69
2021/03/16 20:17:36;;;;;;;3.22;0.40;;;;;;;;;;5039490;28;20044;-68
2021/03/16 20:20:21;;;;;;;5.00;1.73;;;;;;;;;;5038082;28;20083;-69
2021/03/16 20:23:06;;;;;;;1.95;0.55;;;;;;;;;;5040204;28;20091;-71
2021/03/16 20:25:51;;;;;;;10.77;2.03;;;;;;;;;;5042332;28;20053;-69
2021/03/16 20:28:35;;;;;;;0.00;0.00;;;;;;;;;;5040506;28;20574;-70
2021/03/16 20:31:20;;;;;;;0.10;0.10;;;;;;;;;;5039673;28;20159;-68
2021/03/16 20:34:06;;;;;;;0.13;0.10;;;;;;;;;;5042369;28;20120;-67
2021/03/16 20:36:51;;;;;;;1.55;1.05;;;;;;;;;;5041457;28;20448;-70
2021/03/16 20:39:36;;;;;;;1.10;0.57;;;;;;;;;;5039495;28;20040;-71
2021/03/16 20:42:21;;;;;;;1.48;1.35;;;;;;;;;;5040839;28;20122;-69
2021/03/16 20:45:10;;;;;;;8.43;1.83;;;;;;;;;;5040828;28;20753;-70
2021/03/16 20:47:55;;;;;;;1.10;0.20;;;;;;;;;;5037930;28;20289;-68
2021/03/16 20:50:41;;;;;;;0.00;0.00;;;;;;;;;;5039594;28;20056;-70
2021/03/16 20:53:26;;;;;;;0.40;0.25;;;;;;;;;;5054400;28;20082;-70
2021/03/16 20:56:11;;;;;;;0.00;0.00;;;;;;;;;;5056381;28;20606;-70
2021/03/16 20:58:56;;;;;;;0.47;0.38;;;;;;;;;;5055270;28;20052;-71
2021/03/16 21:01:41;;;;;;;4.93;1.92;;;;;;;;;;5053775;28;20044;-69
2021/03/16 21:04:26;;;;;;;1.25;0.17;;;;;;;;;;5048990;28;20086;-69
2021/03/16 21:07:11;;;;;;;0.40;0.40;;;;;;;;;;5049667;28;20043;-67
2021/03/16 21:09:56;;;;;;;0.10;0.10;;;;;;;;;;5020522;28;20044;-68
2021/03/16 21:12:40;;;;;;;0.00;0.00;;;;;;;;;;5049565;28;20040;-70
2021/03/16 21:15:25;;;;;;;0.60;0.25;;;;;;;;;;5047318;28;20140;-70
2021/03/16 21:18:10;;;;;;;0.08;0.08;;;;;;;;;;5033918;28;20048;-70
2021/03/16 21:20:55;;;;;;;0.10;0.10;;;;;;;;;;5047692;28;20060;-70
2021/03/16 21:23:39;;;;;;;0.00;0.00;;;;;;;;;;5049340;28;20101;-70
2021/03/16 21:26:24;;;;;;;0.63;0.63;;;;;;;;;;5049462;28;20071;-70
2021/03/16 21:29:08;;;;;;;0.00;0.00;;;;;;;;;;5049002;28;20274;-68
